sensor_id;sensor_type;location;lat;lon;timestamp;P1;durP1;ratioP1;P2;durP2;ratioP2
64375;SDS011;50700;55.416;12.952;2022-07-04T00:01:17;4.30;;;1.40;;
64375;SDS011;50700;55.416;12.952;2022-07-04T00:03:43;5.38;;;1.85;;
64375;SDS011;50700;55.416;12.952;2022-07-04T00:06:09;2.95;;;1.38;;
64375;SDS011;50700;55.416;12.952;2022-07-04T00:08:35;4.43;;;1.25;;
64375;SDS011;50700;55.416;12.952;2022-07-04T00:11:01;2.80;;;1.15;;
64375;SDS011;50700;55.416;12.952;2022-07-04T00:13:28;1.23;;;1.13;;
64375;SDS011;50700;55.416;12.952;2022-07-04T00:15:54;2.25;;;1.20;;
64375;SDS011;50700;55.416;12.952;2022-07-04T00:18:20;2.13;;;1.08;;
64375;SDS011;50700;55.416;12.952;2022-07-04T00:20:46;3.60;;;1.33;;
64375;SDS011;50700;55.416;12.952;2022-07-04T00:23:13;4.18;;;1.20;;
64375;SDS011;50700;55.416;12.952;2022-07-04T00:25:39;1.88;;;1.17;;
64375;SDS011;50700;55.416;12.952;2022-07-04T00:28:05;1.77;;;1.40;;
64375;SDS011;50700;55.416;12.952;2022-07-04T00:30:31;4.95;;;1.40;;
64375;SDS011;50700;55.416;12.952;2022-07-04T00:32:57;2.55;;;1.30;;
64375;SDS011;50700;55.416;12.952;2022-07-04T00:35:24;3.42;;;1.50;;
64375;SDS011;50700;55.416;12.952;2022-07-04T00:37:50;1.63;;;1.30;;
64375;SDS011;50700;55.416;12.952;2022-07-04T00:40:16;3.88;;;1.75;;
64375;SDS011;50700;55.416;12.952;2022-07-04T00:42:42;1.80;;;1.52;;
64375;SDS011;50700;55.416;12.952;2022-07-04T00:45:08;3.25;;;1.50;;
64375;SDS011;50700;55.416;12.952;2022-07-04T00:47:35;3.10;;;1.65;;
64375;SDS011;50700;55.416;12.952;2022-07-04T00:50:01;3.83;;;1.77;;
64375;SDS011;50700;55.416;12.952;2022-07-04T00:52:27;2.95;;;2.00;;
64375;SDS011;50700;55.416;12.952;2022-07-04T00:54:54;6.88;;;2.03;;
64375;SDS011;50700;55.416;12.952;2022-07-04T00:57:20;1.65;;;1.45;;
64375;SDS011;50700;55.416;12.952;2022-07-04T00:59:46;4.30;;;1.88;;
64375;SDS011;50700;55.416;12.952;2022-07-04T01:02:13;3.28;;;1.55;;
64375;SDS011;50700;55.416;12.952;2022-07-04T01:04:39;3.88;;;1.95;;
64375;SDS011;50700;55.416;12.952;2022-07-04T01:07:05;5.65;;;1.90;;
64375;SDS011;50700;55.416;12.952;2022-07-04T01:09:32;4.60;;;1.80;;
64375;SDS011;50700;55.416;12.952;2022-07-04T01:11:58;8.80;;;2.53;;
64375;SDS011;50700;55.416;12.952;2022-07-04T01:14:24;3.97;;;2.20;;
64375;SDS011;50700;55.416;12.952;2022-07-04T01:16:50;2.08;;;1.60;;
64375;SDS011;50700;55.416;12.952;2022-07-04T01:19:17;3.05;;;2.05;;
64375;SDS011;50700;55.416;12.952;2022-07-04T01:21:43;4.57;;;2.20;;
64375;SDS011;50700;55.416;12.952;2022-07-04T01:24:12;3.42;;;1.83;;
64375;SDS011;50700;55.416;12.952;2022-07-04T01:26:38;1.90;;;1.80;;
64375;SDS011;50700;55.416;12.952;2022-07-04T01:29:04;3.05;;;1.95;;
64375;SDS011;50700;55.416;12.952;2022-07-04T01:31:30;2.67;;;1.85;;
64375;SDS011;50700;55.416;12.952;2022-07-04T01:33:57;2.28;;;1.67;;
64375;SDS011;50700;55.416;12.952;2022-07-04T01:36:23;3.97;;;2.10;;
64375;SDS011;50700;55.416;12.952;2022-07-04T01:38:49;5.53;;;2.00;;
64375;SDS011;50700;55.416;12.952;2022-07-04T01:41:15;4.25;;;2.10;;
64375;SDS011;50700;55.416;12.952;2022-07-04T01:43:41;10.68;;;2.00;;
64375;SDS011;50700;55.416;12.952;2022-07-04T01:46:07;5.38;;;2.20;;
64375;SDS011;50700;55.416;12.952;2022-07-04T01:48:33;2.47;;;1.83;;
64375;SDS011;50700;55.416;12.952;2022-07-04T01:51:00;3.33;;;2.10;;
64375;SDS011;50700;55.416;12.952;2022-07-04T01:53:26;3.55;;;2.58;;
64375;SDS011;50700;55.416;12.952;2022-07-04T01:55:52;4.20;;;2.15;;
64375;SDS011;50700;55.416;12.952;2022-07-04T01:58:18;6.45;;;2.20;;
64375;SDS011;50700;55.416;12.952;2022-07-04T02:00:44;4.28;;;2.17;;
64375;SDS011;50700;55.416;12.952;2022-07-04T02:03:29;4.03;;;2.30;;
64375;SDS011;50700;55.416;12.952;2022-07-04T02:05:56;7.35;;;2.13;;
64375;SDS011;50700;55.416;12.952;2022-07-04T02:08:22;2.40;;;1.80;;
64375;SDS011;50700;55.416;12.952;2022-07-04T02:11:08;4.00;;;2.08;;
64375;SDS011;50700;55.416;12.952;2022-07-04T02:13:34;3.08;;;2.10;;
64375;SDS011;50700;55.416;12.952;2022-07-04T02:16:00;2.83;;;2.00;;
64375;SDS011;50700;55.416;12.952;2022-07-04T02:18:26;2.72;;;1.90;;
64375;SDS011;50700;55.416;12.952;2022-07-04T02:20:52;2.28;;;1.83;;
64375;SDS011;50700;55.416;12.952;2022-07-04T02:23:18;2.92;;;1.90;;
64375;SDS011;50700;55.416;12.952;2022-07-04T02:25:45;3.42;;;1.90;;
64375;SDS011;50700;55.416;12.952;2022-07-04T02:28:11;2.15;;;1.92;;
64375;SDS011;50700;55.416;12.952;2022-07-04T02:30:37;2.45;;;2.20;;
64375;SDS011;50700;55.416;12.952;2022-07-04T02:33:03;2.30;;;1.73;;
64375;SDS011;50700;55.416;12.952;2022-07-04T02:35:29;2.00;;;1.80;;
64375;SDS011;50700;55.416;12.952;2022-07-04T02:37:55;3.20;;;1.63;;
64375;SDS011;50700;55.416;12.952;2022-07-04T02:40:21;2.45;;;1.77;;
64375;SDS011;50700;55.416;12.952;2022-07-04T02:42:48;1.83;;;1.70;;
64375;SDS011;50700;55.416;12.952;2022-07-04T02:45:14;1.90;;;1.50;;
64375;SDS011;50700;55.416;12.952;2022-07-04T02:47:40;1.98;;;1.52;;
64375;SDS011;50700;55.416;12.952;2022-07-04T02:50:06;2.28;;;1.88;;
64375;SDS011;50700;55.416;12.952;2022-07-04T02:52:33;1.90;;;1.70;;
64375;SDS011;50700;55.416;12.952;2022-07-04T02:54:59;1.98;;;1.67;;
64375;SDS011;50700;55.416;12.952;2022-07-04T02:57:25;1.88;;;1.70;;
64375;SDS011;50700;55.416;12.952;2022-07-04T02:59:51;2.75;;;1.63;;
64375;SDS011;50700;55.416;12.952;2022-07-04T03:02:17;2.55;;;1.70;;
64375;SDS011;50700;55.416;12.952;2022-07-04T03:04:44;3.65;;;1.70;;
64375;SDS011;50700;55.416;12.952;2022-07-04T03:07:10;1.63;;;1.52;;
64375;SDS011;50700;55.416;12.952;2022-07-04T03:09:36;1.90;;;1.80;;
64375;SDS011;50700;55.416;12.952;2022-07-04T03:12:02;2.05;;;1.90;;
64375;SDS011;50700;55.416;12.952;2022-07-04T03:14:28;4.60;;;2.13;;
64375;SDS011;50700;55.416;12.952;2022-07-04T03:16:55;2.03;;;1.90;;
64375;SDS011;50700;55.416;12.952;2022-07-04T03:19:21;3.00;;;2.10;;
64375;SDS011;50700;55.416;12.952;2022-07-04T03:21:47;2.90;;;2.10;;
64375;SDS011;50700;55.416;12.952;2022-07-04T03:24:13;3.65;;;2.20;;
64375;SDS011;50700;55.416;12.952;2022-07-04T03:26:39;2.47;;;2.28;;
64375;SDS011;50700;55.416;12.952;2022-07-04T03:29:05;4.13;;;2.00;;
64375;SDS011;50700;55.416;12.952;2022-07-04T03:31:32;4.78;;;2.30;;
64375;SDS011;50700;55.416;12.952;2022-07-04T03:33:58;3.97;;;2.53;;
64375;SDS011;50700;55.416;12.952;2022-07-04T03:36:24;2.92;;;2.63;;
64375;SDS011;50700;55.416;12.952;2022-07-04T03:38:50;4.40;;;2.63;;
64375;SDS011;50700;55.416;12.952;2022-07-04T03:41:16;5.18;;;3.03;;
64375;SDS011;50700;55.416;12.952;2022-07-04T03:43:42;6.20;;;3.10;;
64375;SDS011;50700;55.416;12.952;2022-07-04T03:46:08;6.15;;;2.80;;
64375;SDS011;50700;55.416;12.952;2022-07-04T03:48:35;5.75;;;3.30;;
64375;SDS011;50700;55.416;12.952;2022-07-04T03:51:01;7.97;;;3.30;;
64375;SDS011;50700;55.416;12.952;2022-07-04T03:53:27;3.75;;;2.95;;
64375;SDS011;50700;55.416;12.952;2022-07-04T03:55:53;3.50;;;3.20;;
64375;SDS011;50700;55.416;12.952;2022-07-04T03:58:19;4.38;;;3.05;;
64375;SDS011;50700;55.416;12.952;2022-07-04T04:00:45;3.80;;;3.00;;
64375;SDS011;50700;55.416;12.952;2022-07-04T04:03:12;5.57;;;3.50;;
64375;SDS011;50700;55.416;12.952;2022-07-04T04:05:56;4.85;;;3.28;;
64375;SDS011;50700;55.416;12.952;2022-07-04T04:08:22;2.80;;;2.60;;
64375;SDS011;50700;55.416;12.952;2022-07-04T04:10:49;3.72;;;3.08;;
64375;SDS011;50700;55.416;12.952;2022-07-04T04:13:16;3.15;;;2.85;;
64375;SDS011;50700;55.416;12.952;2022-07-04T04:15:42;4.45;;;3.33;;
64375;SDS011;50700;55.416;12.952;2022-07-04T04:18:08;6.15;;;3.30;;
64375;SDS011;50700;55.416;12.952;2022-07-04T04:20:34;4.07;;;3.67;;
64375;SDS011;50700;55.416;12.952;2022-07-04T04:23:01;4.32;;;3.17;;
64375;SDS011;50700;55.416;12.952;2022-07-04T04:25:27;8.55;;;4.47;;
64375;SDS011;50700;55.416;12.952;2022-07-04T04:27:53;9.38;;;3.67;;
64375;SDS011;50700;55.416;12.952;2022-07-04T04:30:19;5.65;;;3.63;;
64375;SDS011;50700;55.416;12.952;2022-07-04T04:32:45;5.53;;;3.50;;
64375;SDS011;50700;55.416;12.952;2022-07-04T04:35:12;4.70;;;3.75;;
64375;SDS011;50700;55.416;12.952;2022-07-04T04:37:38;6.72;;;4.10;;
64375;SDS011;50700;55.416;12.952;2022-07-04T04:40:04;8.10;;;4.03;;
64375;SDS011;50700;55.416;12.952;2022-07-04T04:42:31;3.65;;;3.10;;
64375;SDS011;50700;55.416;12.952;2022-07-04T04:44:57;6.97;;;3.20;;
64375;SDS011;50700;55.416;12.952;2022-07-04T04:47:23;7.13;;;3.10;;
64375;SDS011;50700;55.416;12.952;2022-07-04T04:49:49;5.20;;;2.67;;
64375;SDS011;50700;55.416;12.952;2022-07-04T04:52:15;7.65;;;3.10;;
64375;SDS011;50700;55.416;12.952;2022-07-04T04:54:41;5.00;;;2.63;;
64375;SDS011;50700;55.416;12.952;2022-07-04T04:57:07;7.45;;;2.80;;
64375;SDS011;50700;55.416;12.952;2022-07-04T04:59:34;6.72;;;3.30;;
64375;SDS011;50700;55.416;12.952;2022-07-04T05:02:01;4.10;;;2.97;;
64375;SDS011;50700;55.416;12.952;2022-07-04T05:04:27;4.28;;;2.78;;
64375;SDS011;50700;55.416;12.952;2022-07-04T05:06:54;6.10;;;3.33;;
64375;SDS011;50700;55.416;12.952;2022-07-04T05:09:20;7.45;;;3.15;;
64375;SDS011;50700;55.416;12.952;2022-07-04T05:11:46;7.43;;;3.30;;
64375;SDS011;50700;55.416;12.952;2022-07-04T05:14:13;3.28;;;2.97;;
64375;SDS011;50700;55.416;12.952;2022-07-04T05:16:39;7.53;;;3.72;;
64375;SDS011;50700;55.416;12.952;2022-07-04T05:19:06;3.47;;;3.17;;
64375;SDS011;50700;55.416;12.952;2022-07-04T05:21:32;6.47;;;3.75;;
64375;SDS011;50700;55.416;12.952;2022-07-04T05:23:58;4.70;;;3.70;;
64375;SDS011;50700;55.416;12.952;2022-07-04T05:26:25;8.80;;;4.25;;
64375;SDS011;50700;55.416;12.952;2022-07-04T05:28:51;3.45;;;3.10;;
64375;SDS011;50700;55.416;12.952;2022-07-04T05:31:17;5.43;;;3.50;;
64375;SDS011;50700;55.416;12.952;2022-07-04T05:33:43;5.97;;;3.00;;
64375;SDS011;50700;55.416;12.952;2022-07-04T05:36:10;6.50;;;3.00;;
64375;SDS011;50700;55.416;12.952;2022-07-04T05:38:36;7.45;;;3.05;;
64375;SDS011;50700;55.416;12.952;2022-07-04T05:41:02;4.18;;;2.75;;
64375;SDS011;50700;55.416;12.952;2022-07-04T05:43:28;4.47;;;3.10;;
64375;SDS011;50700;55.416;12.952;2022-07-04T05:45:54;4.28;;;2.72;;
64375;SDS011;50700;55.416;12.952;2022-07-04T05:48:20;5.97;;;3.25;;
64375;SDS011;50700;55.416;12.952;2022-07-04T05:50:47;7.57;;;3.75;;
64375;SDS011;50700;55.416;12.952;2022-07-04T05:53:13;5.85;;;3.10;;
64375;SDS011;50700;55.416;12.952;2022-07-04T05:55:39;4.82;;;3.00;;
64375;SDS011;50700;55.416;12.952;2022-07-04T05:58:06;5.80;;;2.75;;
64375;SDS011;50700;55.416;12.952;2022-07-04T06:00:32;6.65;;;3.13;;
64375;SDS011;50700;55.416;12.952;2022-07-04T06:02:59;6.22;;;3.03;;
64375;SDS011;50700;55.416;12.952;2022-07-04T06:05:25;5.53;;;3.03;;
64375;SDS011;50700;55.416;12.952;2022-07-04T06:07:51;6.38;;;3.13;;
64375;SDS011;50700;55.416;12.952;2022-07-04T06:10:18;5.72;;;2.97;;
64375;SDS011;50700;55.416;12.952;2022-07-04T06:12:44;3.88;;;2.70;;
64375;SDS011;50700;55.416;12.952;2022-07-04T06:15:10;3.60;;;2.40;;
64375;SDS011;50700;55.416;12.952;2022-07-04T06:17:37;6.72;;;2.72;;
64375;SDS011;50700;55.416;12.952;2022-07-04T06:20:04;3.33;;;2.53;;
64375;SDS011;50700;55.416;12.952;2022-07-04T06:22:44;2.90;;;2.20;;
64375;SDS011;50700;55.416;12.952;2022-07-04T06:25:14;4.90;;;2.50;;
64375;SDS011;50700;55.416;12.952;2022-07-04T06:27:40;4.45;;;2.35;;
64375;SDS011;50700;55.416;12.952;2022-07-04T06:30:07;3.17;;;2.78;;
64375;SDS011;50700;55.416;12.952;2022-07-04T06:35:08;5.72;;;2.15;;
64375;SDS011;50700;55.416;12.952;2022-07-04T06:37:53;6.00;;;2.35;;
64375;SDS011;50700;55.416;12.952;2022-07-04T06:40:20;3.70;;;1.90;;
64375;SDS011;50700;55.416;12.952;2022-07-04T06:42:46;5.03;;;2.20;;
64375;SDS011;50700;55.416;12.952;2022-07-04T06:45:12;2.83;;;2.10;;
64375;SDS011;50700;55.416;12.952;2022-07-04T06:47:38;7.80;;;2.50;;
64375;SDS011;50700;55.416;12.952;2022-07-04T06:50:05;2.25;;;2.00;;
64375;SDS011;50700;55.416;12.952;2022-07-04T06:52:31;2.15;;;1.90;;
64375;SDS011;50700;55.416;12.952;2022-07-04T06:54:57;4.13;;;2.22;;
64375;SDS011;50700;55.416;12.952;2022-07-04T06:57:25;4.50;;;2.45;;
64375;SDS011;50700;55.416;12.952;2022-07-04T06:59:51;4.45;;;2.58;;
64375;SDS011;50700;55.416;12.952;2022-07-04T07:02:17;2.17;;;1.95;;
64375;SDS011;50700;55.416;12.952;2022-07-04T07:04:43;4.15;;;2.13;;
64375;SDS011;50700;55.416;12.952;2022-07-04T07:07:09;6.22;;;2.95;;
64375;SDS011;50700;55.416;12.952;2022-07-04T07:09:36;5.18;;;2.42;;
64375;SDS011;50700;55.416;12.952;2022-07-04T07:12:02;3.08;;;2.42;;
64375;SDS011;50700;55.416;12.952;2022-07-04T07:14:28;3.90;;;2.42;;
64375;SDS011;50700;55.416;12.952;2022-07-04T07:16:55;6.05;;;2.50;;
64375;SDS011;50700;55.416;12.952;2022-07-04T07:19:21;5.68;;;2.58;;
64375;SDS011;50700;55.416;12.952;2022-07-04T07:21:47;5.70;;;3.00;;
64375;SDS011;50700;55.416;12.952;2022-07-04T07:24:13;4.97;;;2.67;;
64375;SDS011;50700;55.416;12.952;2022-07-04T07:26:39;3.63;;;2.75;;
64375;SDS011;50700;55.416;12.952;2022-07-04T07:29:06;5.45;;;2.50;;
64375;SDS011;50700;55.416;12.952;2022-07-04T07:31:32;2.53;;;2.20;;
64375;SDS011;50700;55.416;12.952;2022-07-04T07:33:58;4.55;;;2.38;;
64375;SDS011;50700;55.416;12.952;2022-07-04T07:36:24;5.90;;;2.47;;
64375;SDS011;50700;55.416;12.952;2022-07-04T07:38:50;2.40;;;2.20;;
64375;SDS011;50700;55.416;12.952;2022-07-04T07:41:18;3.88;;;2.20;;
64375;SDS011;50700;55.416;12.952;2022-07-04T07:43:44;4.95;;;2.40;;
64375;SDS011;50700;55.416;12.952;2022-07-04T07:46:11;4.00;;;2.17;;
64375;SDS011;50700;55.416;12.952;2022-07-04T07:48:37;3.42;;;2.58;;
64375;SDS011;50700;55.416;12.952;2022-07-04T07:51:03;2.67;;;2.25;;
64375;SDS011;50700;55.416;12.952;2022-07-04T07:53:29;3.83;;;2.50;;
64375;SDS011;50700;55.416;12.952;2022-07-04T07:55:55;4.22;;;2.15;;
64375;SDS011;50700;55.416;12.952;2022-07-04T07:58:21;4.18;;;2.20;;
64375;SDS011;50700;55.416;12.952;2022-07-04T08:00:47;2.00;;;1.90;;
64375;SDS011;50700;55.416;12.952;2022-07-04T08:03:14;3.75;;;1.90;;
64375;SDS011;50700;55.416;12.952;2022-07-04T08:05:58;3.17;;;1.70;;
64375;SDS011;50700;55.416;12.952;2022-07-04T08:08:24;4.82;;;2.20;;
64375;SDS011;50700;55.416;12.952;2022-07-04T08:10:51;4.03;;;2.30;;
64375;SDS011;50700;55.416;12.952;2022-07-04T08:13:17;2.25;;;1.95;;
64375;SDS011;50700;55.416;12.952;2022-07-04T08:15:43;9.07;;;2.40;;
64375;SDS011;50700;55.416;12.952;2022-07-04T08:18:09;4.25;;;2.15;;
64375;SDS011;50700;55.416;12.952;2022-07-04T08:20:35;3.78;;;1.90;;
64375;SDS011;50700;55.416;12.952;2022-07-04T08:23:02;4.47;;;2.85;;
64375;SDS011;50700;55.416;12.952;2022-07-04T08:25:28;2.30;;;2.10;;
64375;SDS011;50700;55.416;12.952;2022-07-04T08:27:54;2.65;;;1.90;;
64375;SDS011;50700;55.416;12.952;2022-07-04T08:30:20;3.50;;;2.08;;
64375;SDS011;50700;55.416;12.952;2022-07-04T08:32:46;3.10;;;1.50;;
64375;SDS011;50700;55.416;12.952;2022-07-04T08:35:12;1.88;;;1.60;;
64375;SDS011;50700;55.416;12.952;2022-07-04T08:37:38;2.85;;;1.70;;
64375;SDS011;50700;55.416;12.952;2022-07-04T08:40:06;3.33;;;2.05;;
64375;SDS011;50700;55.416;12.952;2022-07-04T08:42:37;1.65;;;1.55;;
64375;SDS011;50700;55.416;12.952;2022-07-04T08:45:03;2.63;;;1.58;;
64375;SDS011;50700;55.416;12.952;2022-07-04T08:47:31;4.45;;;2.25;;
64375;SDS011;50700;55.416;12.952;2022-07-04T08:52:46;1.92;;;1.48;;
64375;SDS011;50700;55.416;12.952;2022-07-04T08:55:13;2.38;;;1.88;;
64375;SDS011;50700;55.416;12.952;2022-07-04T08:57:58;2.25;;;1.40;;
64375;SDS011;50700;55.416;12.952;2022-07-04T09:00:43;1.95;;;1.45;;
64375;SDS011;50700;55.416;12.952;2022-07-04T09:03:10;2.08;;;1.60;;
64375;SDS011;50700;55.416;12.952;2022-07-04T09:05:36;3.75;;;1.40;;
64375;SDS011;50700;55.416;12.952;2022-07-04T09:08:03;1.63;;;1.35;;
64375;SDS011;50700;55.416;12.952;2022-07-04T09:10:29;2.63;;;1.40;;
64375;SDS011;50700;55.416;12.952;2022-07-04T09:12:56;1.85;;;1.40;;
64375;SDS011;50700;55.416;12.952;2022-07-04T09:15:22;4.60;;;1.40;;
64375;SDS011;50700;55.416;12.952;2022-07-04T09:17:48;3.53;;;1.30;;
64375;SDS011;50700;55.416;12.952;2022-07-04T09:20:18;2.08;;;1.48;;
64375;SDS011;50700;55.416;12.952;2022-07-04T09:22:45;1.40;;;1.30;;
64375;SDS011;50700;55.416;12.952;2022-07-04T09:25:12;2.40;;;1.10;;
64375;SDS011;50700;55.416;12.952;2022-07-04T09:27:40;1.23;;;1.13;;
64375;SDS011;50700;55.416;12.952;2022-07-04T09:30:10;1.63;;;1.38;;
64375;SDS011;50700;55.416;12.952;2022-07-04T09:32:43;2.95;;;1.27;;
64375;SDS011;50700;55.416;12.952;2022-07-04T09:35:18;1.10;;;1.00;;
64375;SDS011;50700;55.416;12.952;2022-07-04T09:37:45;1.75;;;1.00;;
64375;SDS011;50700;55.416;12.952;2022-07-04T09:42:47;3.88;;;1.40;;
64375;SDS011;50700;55.416;12.952;2022-07-04T09:45:14;6.40;;;2.72;;
64375;SDS011;50700;55.416;12.952;2022-07-04T09:47:41;2.63;;;0.98;;
64375;SDS011;50700;55.416;12.952;2022-07-04T09:55:12;0.80;;;0.80;;
64375;SDS011;50700;55.416;12.952;2022-07-04T09:57:43;2.15;;;0.90;;
64375;SDS011;50700;55.416;12.952;2022-07-04T10:00:16;1.05;;;0.93;;
64375;SDS011;50700;55.416;12.952;2022-07-04T10:02:43;1.58;;;0.80;;
64375;SDS011;50700;55.416;12.952;2022-07-04T10:05:09;1.38;;;0.88;;
64375;SDS011;50700;55.416;12.952;2022-07-04T10:07:39;1.10;;;1.00;;
64375;SDS011;50700;55.416;12.952;2022-07-04T10:10:21;2.17;;;1.40;;
64375;SDS011;50700;55.416;12.952;2022-07-04T10:12:51;3.10;;;0.93;;
64375;SDS011;50700;55.416;12.952;2022-07-04T10:15:18;1.58;;;1.00;;
64375;SDS011;50700;55.416;12.952;2022-07-04T10:17:44;2.67;;;0.90;;
64375;SDS011;50700;55.416;12.952;2022-07-04T10:20:11;1.98;;;0.80;;
64375;SDS011;50700;55.416;12.952;2022-07-04T10:22:37;2.58;;;1.13;;
64375;SDS011;50700;55.416;12.952;2022-07-04T10:25:04;10.15;;;3.55;;
64375;SDS011;50700;55.416;12.952;2022-07-04T10:27:30;1.98;;;1.02;;
64375;SDS011;50700;55.416;12.952;2022-07-04T10:29:57;3.80;;;1.95;;
64375;SDS011;50700;55.416;12.952;2022-07-04T10:32:25;1.35;;;0.80;;
64375;SDS011;50700;55.416;12.952;2022-07-04T10:34:52;2.90;;;1.10;;
64375;SDS011;50700;55.416;12.952;2022-07-04T10:37:18;4.40;;;0.75;;
64375;SDS011;50700;55.416;12.952;2022-07-04T10:39:45;5.97;;;1.88;;
64375;SDS011;50700;55.416;12.952;2022-07-04T10:42:24;3.75;;;0.82;;
64375;SDS011;50700;55.416;12.952;2022-07-04T10:44:51;1.08;;;0.88;;
64375;SDS011;50700;55.416;12.952;2022-07-04T10:47:22;2.70;;;0.80;;
64375;SDS011;50700;55.416;12.952;2022-07-04T10:49:49;0.88;;;0.70;;
64375;SDS011;50700;55.416;12.952;2022-07-04T10:52:17;0.98;;;0.60;;
64375;SDS011;50700;55.416;12.952;2022-07-04T10:54:44;1.23;;;0.90;;
64375;SDS011;50700;55.416;12.952;2022-07-04T10:57:11;1.15;;;0.98;;
64375;SDS011;50700;55.416;12.952;2022-07-04T10:59:38;2.95;;;0.93;;
64375;SDS011;50700;55.416;12.952;2022-07-04T11:08:04;2.05;;;0.90;;
64375;SDS011;50700;55.416;12.952;2022-07-04T11:17:54;1.30;;;0.82;;
64375;SDS011;50700;55.416;12.952;2022-07-04T11:20:21;2.38;;;0.80;;
64375;SDS011;50700;55.416;12.952;2022-07-04T11:22:48;1.80;;;0.80;;
64375;SDS011;50700;55.416;12.952;2022-07-04T11:25:14;2.47;;;0.90;;
64375;SDS011;50700;55.416;12.952;2022-07-04T11:27:41;0.65;;;0.52;;
64375;SDS011;50700;55.416;12.952;2022-07-04T11:30:08;1.63;;;0.60;;
64375;SDS011;50700;55.416;12.952;2022-07-04T11:32:34;1.42;;;1.05;;
64375;SDS011;50700;55.416;12.952;2022-07-04T11:35:03;2.30;;;0.90;;
64375;SDS011;50700;55.416;12.952;2022-07-04T11:37:29;0.80;;;0.80;;
64375;SDS011;50700;55.416;12.952;2022-07-04T11:39:56;0.90;;;0.82;;
64375;SDS011;50700;55.416;12.952;2022-07-04T11:45:45;2.38;;;0.95;;
64375;SDS011;50700;55.416;12.952;2022-07-04T11:48:19;2.00;;;0.98;;
64375;SDS011;50700;55.416;12.952;2022-07-04T11:50:49;0.93;;;0.77;;
64375;SDS011;50700;55.416;12.952;2022-07-04T11:53:18;2.65;;;0.70;;
64375;SDS011;50700;55.416;12.952;2022-07-04T11:55:54;1.95;;;0.80;;
64375;SDS011;50700;55.416;12.952;2022-07-04T11:58:21;2.60;;;0.80;;
64375;SDS011;50700;55.416;12.952;2022-07-04T12:00:48;2.63;;;0.93;;
64375;SDS011;50700;55.416;12.952;2022-07-04T12:03:14;2.00;;;0.80;;
64375;SDS011;50700;55.416;12.952;2022-07-04T12:05:40;1.88;;;0.70;;
64375;SDS011;50700;55.416;12.952;2022-07-04T12:08:09;3.33;;;0.90;;
64375;SDS011;50700;55.416;12.952;2022-07-04T12:10:35;3.25;;;0.98;;
64375;SDS011;50700;55.416;12.952;2022-07-04T12:13:02;5.05;;;0.93;;
64375;SDS011;50700;55.416;12.952;2022-07-04T12:15:41;1.40;;;0.60;;
64375;SDS011;50700;55.416;12.952;2022-07-04T12:18:18;5.18;;;1.00;;
64375;SDS011;50700;55.416;12.952;2022-07-04T12:20:45;0.65;;;0.60;;
64375;SDS011;50700;55.416;12.952;2022-07-04T12:23:11;1.70;;;0.70;;
64375;SDS011;50700;55.416;12.952;2022-07-04T12:25:38;2.08;;;0.60;;
64375;SDS011;50700;55.416;12.952;2022-07-04T12:28:11;4.70;;;0.60;;
64375;SDS011;50700;55.416;12.952;2022-07-04T12:30:49;1.58;;;0.50;;
64375;SDS011;50700;55.416;12.952;2022-07-04T12:33:17;1.35;;;0.70;;
64375;SDS011;50700;55.416;12.952;2022-07-04T12:35:46;0.98;;;0.63;;
64375;SDS011;50700;55.416;12.952;2022-07-04T12:38:20;1.95;;;0.80;;
64375;SDS011;50700;55.416;12.952;2022-07-04T12:40:57;1.50;;;0.70;;
64375;SDS011;50700;55.416;12.952;2022-07-04T12:43:43;1.40;;;0.80;;
64375;SDS011;50700;55.416;12.952;2022-07-04T12:46:10;1.40;;;0.60;;
64375;SDS011;50700;55.416;12.952;2022-07-04T12:48:37;1.35;;;0.70;;
64375;SDS011;50700;55.416;12.952;2022-07-04T12:51:11;2.63;;;0.73;;
64375;SDS011;50700;55.416;12.952;2022-07-04T12:53:38;1.83;;;0.70;;
64375;SDS011;50700;55.416;12.952;2022-07-04T12:56:05;1.15;;;0.70;;
64375;SDS011;50700;55.416;12.952;2022-07-04T12:58:31;1.13;;;0.50;;
64375;SDS011;50700;55.416;12.952;2022-07-04T13:00:57;0.82;;;0.65;;
64375;SDS011;50700;55.416;12.952;2022-07-04T13:03:24;1.02;;;0.60;;
64375;SDS011;50700;55.416;12.952;2022-07-04T13:05:50;2.03;;;0.70;;
64375;SDS011;50700;55.416;12.952;2022-07-04T13:08:16;2.83;;;0.73;;
64375;SDS011;50700;55.416;12.952;2022-07-04T13:10:42;0.82;;;0.80;;
64375;SDS011;50700;55.416;12.952;2022-07-04T13:13:09;0.98;;;0.60;;
64375;SDS011;50700;55.416;12.952;2022-07-04T13:15:35;3.28;;;0.93;;
64375;SDS011;50700;55.416;12.952;2022-07-04T13:18:01;2.13;;;0.73;;
64375;SDS011;50700;55.416;12.952;2022-07-04T13:20:28;0.52;;;0.50;;
64375;SDS011;50700;55.416;12.952;2022-07-04T13:22:54;1.83;;;0.60;;
64375;SDS011;50700;55.416;12.952;2022-07-04T13:25:20;1.13;;;0.60;;
64375;SDS011;50700;55.416;12.952;2022-07-04T13:27:47;2.38;;;0.73;;
64375;SDS011;50700;55.416;12.952;2022-07-04T13:30:13;1.33;;;0.80;;
64375;SDS011;50700;55.416;12.952;2022-07-04T13:32:39;2.15;;;0.68;;
64375;SDS011;50700;55.416;12.952;2022-07-04T13:35:05;1.60;;;0.82;;
64375;SDS011;50700;55.416;12.952;2022-07-04T13:37:32;1.35;;;0.75;;
64375;SDS011;50700;55.416;12.952;2022-07-04T13:39:58;4.38;;;0.70;;
64375;SDS011;50700;55.416;12.952;2022-07-04T13:42:24;2.45;;;1.00;;
64375;SDS011;50700;55.416;12.952;2022-07-04T13:45:09;1.00;;;0.60;;
64375;SDS011;50700;55.416;12.952;2022-07-04T13:47:37;3.83;;;1.20;;
64375;SDS011;50700;55.416;12.952;2022-07-04T13:50:03;1.05;;;0.57;;
64375;SDS011;50700;55.416;12.952;2022-07-04T13:52:30;2.88;;;0.80;;
64375;SDS011;50700;55.416;12.952;2022-07-04T13:54:56;1.38;;;1.23;;
64375;SDS011;50700;55.416;12.952;2022-07-04T13:57:22;1.98;;;1.25;;
64375;SDS011;50700;55.416;12.952;2022-07-04T13:59:48;3.10;;;0.90;;
64375;SDS011;50700;55.416;12.952;2022-07-04T14:02:14;3.30;;;0.80;;
64375;SDS011;50700;55.416;12.952;2022-07-04T14:04:40;2.45;;;0.80;;
64375;SDS011;50700;55.416;12.952;2022-07-04T14:07:06;1.65;;;0.82;;
64375;SDS011;50700;55.416;12.952;2022-07-04T14:09:33;3.42;;;1.00;;
64375;SDS011;50700;55.416;12.952;2022-07-04T14:11:59;2.33;;;0.88;;
64375;SDS011;50700;55.416;12.952;2022-07-04T14:14:25;1.13;;;1.00;;
64375;SDS011;50700;55.416;12.952;2022-07-04T14:16:51;2.72;;;0.93;;
64375;SDS011;50700;55.416;12.952;2022-07-04T14:19:17;1.42;;;0.80;;
64375;SDS011;50700;55.416;12.952;2022-07-04T14:21:44;1.85;;;0.80;;
64375;SDS011;50700;55.416;12.952;2022-07-04T14:24:10;3.22;;;0.90;;
64375;SDS011;50700;55.416;12.952;2022-07-04T14:26:36;3.28;;;1.00;;
64375;SDS011;50700;55.416;12.952;2022-07-04T14:29:02;3.58;;;1.00;;
64375;SDS011;50700;55.416;12.952;2022-07-04T14:31:28;1.10;;;0.70;;
64375;SDS011;50700;55.416;12.952;2022-07-04T14:33:56;2.10;;;0.90;;
64375;SDS011;50700;55.416;12.952;2022-07-04T14:36:22;4.30;;;0.93;;
64375;SDS011;50700;55.416;12.952;2022-07-04T14:38:48;2.55;;;0.68;;
64375;SDS011;50700;55.416;12.952;2022-07-04T14:41:14;1.25;;;0.77;;
64375;SDS011;50700;55.416;12.952;2022-07-04T14:43:42;2.58;;;0.70;;
64375;SDS011;50700;55.416;12.952;2022-07-04T14:46:09;2.08;;;0.73;;
64375;SDS011;50700;55.416;12.952;2022-07-04T14:48:36;1.40;;;0.80;;
64375;SDS011;50700;55.416;12.952;2022-07-04T14:51:02;2.08;;;0.70;;
64375;SDS011;50700;55.416;12.952;2022-07-04T14:53:29;2.95;;;0.95;;
64375;SDS011;50700;55.416;12.952;2022-07-04T14:55:55;2.65;;;0.68;;
64375;SDS011;50700;55.416;12.952;2022-07-04T14:58:22;3.22;;;0.80;;
64375;SDS011;50700;55.416;12.952;2022-07-04T15:00:48;1.60;;;0.82;;
64375;SDS011;50700;55.416;12.952;2022-07-04T15:03:14;3.83;;;1.27;;